sensor_id;sensor_type;location;lat;lon;timestamp;temperature;humidity
6822;DHT22;3449;48.728;8.968;2023-03-14T00:00:08;8.40;99.90
6822;DHT22;3449;48.728;8.968;2023-03-14T00:02:36;8.40;99.90
6822;DHT22;3449;48.728;8.968;2023-03-14T00:05:03;8.50;99.90
6822;DHT22;3449;48.728;8.968;2023-03-14T00:07:32;8.40;99.90
6822;DHT22;3449;48.728;8.968;2023-03-14T00:10:01;8.40;99.90
6822;DHT22;3449;48.728;8.968;2023-03-14T00:12:30;8.50;99.90
6822;DHT22;3449;48.728;8.968;2023-03-14T00:14:57;8.50;99.90
6822;DHT22;3449;48.728;8.968;2023-03-14T00:17:27;8.50;99.90
6822;DHT22;3449;48.728;8.968;2023-03-14T00:19:53;8.50;99.90
6822;DHT22;3449;48.728;8.968;2023-03-14T00:22:21;8.50;99.90
6822;DHT22;3449;48.728;8.968;2023-03-14T00:24:48;8.50;99.90
6822;DHT22;3449;48.728;8.968;2023-03-14T00:27:15;8.50;99.90
6822;DHT22;3449;48.728;8.968;2023-03-14T00:29:42;8.50;99.90
6822;DHT22;3449;48.728;8.968;2023-03-14T00:32:10;8.50;99.90
6822;DHT22;3449;48.728;8.968;2023-03-14T00:34:38;8.50;99.90
6822;DHT22;3449;48.728;8.968;2023-03-14T00:37:05;8.50;99.90
6822;DHT22;3449;48.728;8.968;2023-03-14T00:39:32;8.40;99.90
6822;DHT22;3449;48.728;8.968;2023-03-14T00:41:58;8.40;99.90
6822;DHT22;3449;48.728;8.968;2023-03-14T00:44:25;8.40;99.90
6822;DHT22;3449;48.728;8.968;2023-03-14T00:46:52;8.40;99.90
6822;DHT22;3449;48.728;8.968;2023-03-14T00:49:19;8.40;99.90
6822;DHT22;3449;48.728;8.968;2023-03-14T00:51:47;8.40;99.90
6822;DHT22;3449;48.728;8.968;2023-03-14T00:54:14;8.40;99.90
6822;DHT22;3449;48.728;8.968;2023-03-14T00:56:41;8.50;99.90
6822;DHT22;3449;48.728;8.968;2023-03-14T00:59:07;8.40;99.90
6822;DHT22;3449;48.728;8.968;2023-03-14T01:01:34;8.40;99.90
6822;DHT22;3449;48.728;8.968;2023-03-14T01:04:01;8.40;99.90
6822;DHT22;3449;48.728;8.968;2023-03-14T01:06:29;8.50;99.90
6822;DHT22;3449;48.728;8.968;2023-03-14T01:08:58;8.50;99.90
6822;DHT22;3449;48.728;8.968;2023-03-14T01:11:27;8.50;99.90
6822;DHT22;3449;48.728;8.968;2023-03-14T01:13:55;8.50;99.90
6822;DHT22;3449;48.728;8.968;2023-03-14T01:16:24;8.50;99.90
6822;DHT22;3449;48.728;8.968;2023-03-14T01:18:51;8.50;99.90
6822;DHT22;3449;48.728;8.968;2023-03-14T01:21:20;8.50;99.90
6822;DHT22;3449;48.728;8.968;2023-03-14T01:23:48;8.50;99.90
6822;DHT22;3449;48.728;8.968;2023-03-14T01:26:18;8.50;99.90
6822;DHT22;3449;48.728;8.968;2023-03-14T01:28:47;8.50;99.90
6822;DHT22;3449;48.728;8.968;2023-03-14T01:31:14;8.50;99.90
6822;DHT22;3449;48.728;8.968;2023-03-14T01:33:41;8.50;99.90
6822;DHT22;3449;48.728;8.968;2023-03-14T01:36:09;8.50;99.90
6822;DHT22;3449;48.728;8.968;2023-03-14T01:38:38;8.50;99.90
6822;DHT22;3449;48.728;8.968;2023-03-14T01:41:06;8.50;99.90
6822;DHT22;3449;48.728;8.968;2023-03-14T01:43:35;8.50;99.90
6822;DHT22;3449;48.728;8.968;2023-03-14T01:46:21;8.50;99.90
6822;DHT22;3449;48.728;8.968;2023-03-14T01:48:54;8.50;99.90
6822;DHT22;3449;48.728;8.968;2023-03-14T01:51:27;8.50;99.90
6822;DHT22;3449;48.728;8.968;2023-03-14T01:54:01;8.60;99.90
6822;DHT22;3449;48.728;8.968;2023-03-14T01:56:30;8.60;99.90
6822;DHT22;3449;48.728;8.968;2023-03-14T01:58:59;8.60;99.90
6822;DHT22;3449;48.728;8.968;2023-03-14T02:01:28;8.60;99.90
6822;DHT22;3449;48.728;8.968;2023-03-14T02:03:58;8.60;99.90
6822;DHT22;3449;48.728;8.968;2023-03-14T02:06:29;8.60;99.90
6822;DHT22;3449;48.728;8.968;2023-03-14T02:08:59;8.60;99.90
6822;DHT22;3449;48.728;8.968;2023-03-14T02:11:28;8.50;99.90
6822;DHT22;3449;48.728;8.968;2023-03-14T02:13:57;8.50;99.90
6822;DHT22;3449;48.728;8.968;2023-03-14T02:16:25;8.50;99.90
6822;DHT22;3449;48.728;8.968;2023-03-14T02:18:52;8.50;99.90
6822;DHT22;3449;48.728;8.968;2023-03-14T02:21:22;8.50;99.90
6822;DHT22;3449;48.728;8.968;2023-03-14T02:23:56;8.50;99.90
6822;DHT22;3449;48.728;8.968;2023-03-14T02:26:28;8.50;99.90
6822;DHT22;3449;48.728;8.968;2023-03-14T02:28:59;8.50;99.90
6822;DHT22;3449;48.728;8.968;2023-03-14T02:31:26;8.50;99.90
6822;DHT22;3449;48.728;8.968;2023-03-14T02:33:53;8.40;99.90
6822;DHT22;3449;48.728;8.968;2023-03-14T02:36:21;8.40;99.90
6822;DHT22;3449;48.728;8.968;2023-03-14T02:38:55;8.40;99.90
6822;DHT22;3449;48.728;8.968;2023-03-14T02:41:24;8.40;99.90
6822;DHT22;3449;48.728;8.968;2023-03-14T02:43:51;8.40;99.90
6822;DHT22;3449;48.728;8.968;2023-03-14T02:46:20;8.40;99.90
6822;DHT22;3449;48.728;8.968;2023-03-14T02:48:50;8.30;99.90
6822;DHT22;3449;48.728;8.968;2023-03-14T02:51:18;8.40;99.90
6822;DHT22;3449;48.728;8.968;2023-03-14T02:53:44;8.40;99.90
6822;DHT22;3449;48.728;8.968;2023-03-14T02:56:11;8.40;99.90
6822;DHT22;3449;48.728;8.968;2023-03-14T02:58:38;8.40;99.90
6822;DHT22;3449;48.728;8.968;2023-03-14T03:01:06;8.30;99.90
6822;DHT22;3449;48.728;8.968;2023-03-14T03:03:34;8.30;99.90
6822;DHT22;3449;48.728;8.968;2023-03-14T03:06:01;8.30;99.90
6822;DHT22;3449;48.728;8.968;2023-03-14T03:08:28;8.30;99.90
6822;DHT22;3449;48.728;8.968;2023-03-14T03:10:58;8.30;99.90
6822;DHT22;3449;48.728;8.968;2023-03-14T03:13:25;8.30;99.90
6822;DHT22;3449;48.728;8.968;2023-03-14T03:15:52;8.30;99.90
6822;DHT22;3449;48.728;8.968;2023-03-14T03:18:19;8.30;99.90
6822;DHT22;3449;48.728;8.968;2023-03-14T03:20:47;8.30;99.90
6822;DHT22;3449;48.728;8.968;2023-03-14T03:23:14;8.30;99.90
6822;DHT22;3449;48.728;8.968;2023-03-14T03:25:41;8.30;99.90
6822;DHT22;3449;48.728;8.968;2023-03-14T03:28:08;8.20;99.90
6822;DHT22;3449;48.728;8.968;2023-03-14T03:30:37;8.20;99.90
6822;DHT22;3449;48.728;8.968;2023-03-14T03:33:04;8.20;99.90
6822;DHT22;3449;48.728;8.968;2023-03-14T03:35:31;8.20;99.90
6822;DHT22;3449;48.728;8.968;2023-03-14T03:37:59;8.10;99.90
6822;DHT22;3449;48.728;8.968;2023-03-14T03:40:26;8.10;99.90
6822;DHT22;3449;48.728;8.968;2023-03-14T03:42:53;8.00;99.90
6822;DHT22;3449;48.728;8.968;2023-03-14T03:45:20;8.00;99.90
6822;DHT22;3449;48.728;8.968;2023-03-14T03:47:47;8.00;99.90
6822;DHT22;3449;48.728;8.968;2023-03-14T03:50:13;8.00;99.90
6822;DHT22;3449;48.728;8.968;2023-03-14T03:52:40;7.90;99.90
6822;DHT22;3449;48.728;8.968;2023-03-14T03:55:09;7.90;99.90
6822;DHT22;3449;48.728;8.968;2023-03-14T03:57:36;7.90;99.90
6822;DHT22;3449;48.728;8.968;2023-03-14T04:00:03;7.90;99.90
6822;DHT22;3449;48.728;8.968;2023-03-14T04:02:31;7.90;99.90
6822;DHT22;3449;48.728;8.968;2023-03-14T04:04:58;7.90;99.90
6822;DHT22;3449;48.728;8.968;2023-03-14T04:07:25;7.90;99.90
6822;DHT22;3449;48.728;8.968;2023-03-14T04:09:51;7.90;99.90
6822;DHT22;3449;48.728;8.968;2023-03-14T04:12:20;7.90;99.90
6822;DHT22;3449;48.728;8.968;2023-03-14T04:14:46;7.80;99.90
6822;DHT22;3449;48.728;8.968;2023-03-14T04:17:13;7.80;99.90
6822;DHT22;3449;48.728;8.968;2023-03-14T04:19:40;7.80;99.90
6822;DHT22;3449;48.728;8.968;2023-03-14T04:22:07;7.80;99.90
6822;DHT22;3449;48.728;8.968;2023-03-14T04:24:34;7.80;99.90
6822;DHT22;3449;48.728;8.968;2023-03-14T04:27:01;7.70;99.90
6822;DHT22;3449;48.728;8.968;2023-03-14T04:29:29;7.70;99.90
6822;DHT22;3449;48.728;8.968;2023-03-14T04:31:56;7.80;99.90
6822;DHT22;3449;48.728;8.968;2023-03-14T04:34:23;7.80;99.90
6822;DHT22;3449;48.728;8.968;2023-03-14T04:36:50;7.80;99.90
6822;DHT22;3449;48.728;8.968;2023-03-14T04:39:17;7.80;99.90
6822;DHT22;3449;48.728;8.968;2023-03-14T04:41:44;7.80;99.90
6822;DHT22;3449;48.728;8.968;2023-03-14T04:44:11;7.80;99.90
6822;DHT22;3449;48.728;8.968;2023-03-14T04:46:39;7.80;99.90
6822;DHT22;3449;48.728;8.968;2023-03-14T04:49:06;7.70;99.90
6822;DHT22;3449;48.728;8.968;2023-03-14T04:51:33;7.80;99.90
6822;DHT22;3449;48.728;8.968;2023-03-14T04:54:00;7.80;99.90
6822;DHT22;3449;48.728;8.968;2023-03-14T04:56:27;7.80;99.90
6822;DHT22;3449;48.728;8.968;2023-03-14T04:58:54;7.70;99.90
6822;DHT22;3449;48.728;8.968;2023-03-14T05:01:21;7.80;99.90
6822;DHT22;3449;48.728;8.968;2023-03-14T05:03:50;7.80;99.90
6822;DHT22;3449;48.728;8.968;2023-03-14T05:06:17;7.80;99.90
6822;DHT22;3449;48.728;8.968;2023-03-14T05:08:44;7.70;99.90
6822;DHT22;3449;48.728;8.968;2023-03-14T05:11:11;7.80;99.90
6822;DHT22;3449;48.728;8.968;2023-03-14T05:13:38;7.80;99.90
6822;DHT22;3449;48.728;8.968;2023-03-14T05:16:07;7.70;99.90
6822;DHT22;3449;48.728;8.968;2023-03-14T05:18:34;7.80;99.90
6822;DHT22;3449;48.728;8.968;2023-03-14T05:21:03;7.80;99.90
6822;DHT22;3449;48.728;8.968;2023-03-14T05:23:30;7.80;99.90
6822;DHT22;3449;48.728;8.968;2023-03-14T05:25:57;7.80;99.90
6822;DHT22;3449;48.728;8.968;2023-03-14T05:28:24;7.80;99.90
6822;DHT22;3449;48.728;8.968;2023-03-14T05:30:51;7.80;99.90
6822;DHT22;3449;48.728;8.968;2023-03-14T05:33:17;7.90;99.90
6822;DHT22;3449;48.728;8.968;2023-03-14T05:35:44;7.90;99.90
6822;DHT22;3449;48.728;8.968;2023-03-14T05:38:12;8.00;99.90
6822;DHT22;3449;48.728;8.968;2023-03-14T05:40:39;8.10;99.90
6822;DHT22;3449;48.728;8.968;2023-03-14T05:43:06;8.10;99.90
6822;DHT22;3449;48.728;8.968;2023-03-14T05:45:34;8.10;99.90
6822;DHT22;3449;48.728;8.968;2023-03-14T05:48:01;8.10;99.90
6822;DHT22;3449;48.728;8.968;2023-03-14T05:50:28;8.10;99.90
6822;DHT22;3449;48.728;8.968;2023-03-14T05:52:55;8.10;99.90
6822;DHT22;3449;48.728;8.968;2023-03-14T05:55:23;8.10;99.90
6822;DHT22;3449;48.728;8.968;2023-03-14T05:57:50;8.10;99.90
6822;DHT22;3449;48.728;8.968;2023-03-14T06:00:18;8.10;99.90
6822;DHT22;3449;48.728;8.968;2023-03-14T06:02:45;8.10;99.90
6822;DHT22;3449;48.728;8.968;2023-03-14T06:05:12;8.00;99.90
6822;DHT22;3449;48.728;8.968;2023-03-14T06:07:39;8.00;99.90
6822;DHT22;3449;48.728;8.968;2023-03-14T06:10:07;8.00;99.90
6822;DHT22;3449;48.728;8.968;2023-03-14T06:12:35;8.00;99.90
6822;DHT22;3449;48.728;8.968;2023-03-14T06:15:02;8.00;99.90
6822;DHT22;3449;48.728;8.968;2023-03-14T06:17:29;8.00;99.90
6822;DHT22;3449;48.728;8.968;2023-03-14T06:19:56;7.90;99.90
6822;DHT22;3449;48.728;8.968;2023-03-14T06:22:23;8.00;99.90
6822;DHT22;3449;48.728;8.968;2023-03-14T06:24:49;7.90;99.90
6822;DHT22;3449;48.728;8.968;2023-03-14T06:27:16;7.90;99.90
6822;DHT22;3449;48.728;8.968;2023-03-14T06:29:44;7.90;99.90
6822;DHT22;3449;48.728;8.968;2023-03-14T06:32:11;8.00;99.90
6822;DHT22;3449;48.728;8.968;2023-03-14T06:34:38;8.00;99.90
6822;DHT22;3449;48.728;8.968;2023-03-14T06:37:06;8.00;99.90
6822;DHT22;3449;48.728;8.968;2023-03-14T06:39:33;8.00;99.90
6822;DHT22;3449;48.728;8.968;2023-03-14T06:42:00;8.10;99.90
6822;DHT22;3449;48.728;8.968;2023-03-14T06:44:27;8.30;99.90
6822;DHT22;3449;48.728;8.968;2023-03-14T06:46:55;8.40;99.90
6822;DHT22;3449;48.728;8.968;2023-03-14T06:49:22;8.50;99.90
6822;DHT22;3449;48.728;8.968;2023-03-14T06:51:49;8.60;99.90
6822;DHT22;3449;48.728;8.968;2023-03-14T06:54:16;8.70;99.90
6822;DHT22;3449;48.728;8.968;2023-03-14T06:56:43;8.90;99.90
6822;DHT22;3449;48.728;8.968;2023-03-14T06:59:10;8.90;99.90
6822;DHT22;3449;48.728;8.968;2023-03-14T07:01:37;8.90;99.90
6822;DHT22;3449;48.728;8.968;2023-03-14T07:04:05;9.00;99.90
6822;DHT22;3449;48.728;8.968;2023-03-14T07:06:33;9.20;99.90
6822;DHT22;3449;48.728;8.968;2023-03-14T07:09:00;9.30;99.90
6822;DHT22;3449;48.728;8.968;2023-03-14T07:11:27;9.30;99.90
6822;DHT22;3449;48.728;8.968;2023-03-14T07:13:54;9.20;99.90
6822;DHT22;3449;48.728;8.968;2023-03-14T07:16:22;9.00;99.90
6822;DHT22;3449;48.728;8.968;2023-03-14T07:18:49;9.10;99.90
6822;DHT22;3449;48.728;8.968;2023-03-14T07:21:18;9.10;99.90
6822;DHT22;3449;48.728;8.968;2023-03-14T07:23:45;9.00;99.90
6822;DHT22;3449;48.728;8.968;2023-03-14T07:26:12;9.00;99.90
6822;DHT22;3449;48.728;8.968;2023-03-14T07:28:39;9.10;99.90
6822;DHT22;3449;48.728;8.968;2023-03-14T07:31:06;9.30;99.90
6822;DHT22;3449;48.728;8.968;2023-03-14T07:33:33;9.50;99.90
6822;DHT22;3449;48.728;8.968;2023-03-14T07:36:00;9.70;99.90
6822;DHT22;3449;48.728;8.968;2023-03-14T07:38:29;9.90;99.90
6822;DHT22;3449;48.728;8.968;2023-03-14T07:40:59;10.00;99.90
6822;DHT22;3449;48.728;8.968;2023-03-14T07:43:27;10.10;99.90
6822;DHT22;3449;48.728;8.968;2023-03-14T07:45:54;10.30;99.90
6822;DHT22;3449;48.728;8.968;2023-03-14T07:48:20;10.50;99.90
6822;DHT22;3449;48.728;8.968;2023-03-14T07:50:51;10.40;99.90
6822;DHT22;3449;48.728;8.968;2023-03-14T07:53:18;10.40;99.90
6822;DHT22;3449;48.728;8.968;2023-03-14T07:55:46;10.60;99.90
6822;DHT22;3449;48.728;8.968;2023-03-14T07:58:14;10.80;99.90
6822;DHT22;3449;48.728;8.968;2023-03-14T08:00:41;10.80;99.90
6822;DHT22;3449;48.728;8.968;2023-03-14T08:03:08;10.80;99.90
6822;DHT22;3449;48.728;8.968;2023-03-14T08:05:35;10.70;99.90
6822;DHT22;3449;48.728;8.968;2023-03-14T08:08:02;10.60;99.90
6822;DHT22;3449;48.728;8.968;2023-03-14T08:10:29;10.50;99.90
6822;DHT22;3449;48.728;8.968;2023-03-14T08:12:59;10.60;99.90
6822;DHT22;3449;48.728;8.968;2023-03-14T08:15:28;10.60;99.90
6822;DHT22;3449;48.728;8.968;2023-03-14T08:17:55;10.80;99.90
6822;DHT22;3449;48.728;8.968;2023-03-14T08:20:25;11.20;99.90
6822;DHT22;3449;48.728;8.968;2023-03-14T08:22:54;11.30;99.90
6822;DHT22;3449;48.728;8.968;2023-03-14T08:25:21;11.30;99.90
6822;DHT22;3449;48.728;8.968;2023-03-14T08:27:48;11.20;99.90
6822;DHT22;3449;48.728;8.968;2023-03-14T08:30:18;10.90;99.90
6822;DHT22;3449;48.728;8.968;2023-03-14T08:32:45;10.50;99.90
6822;DHT22;3449;48.728;8.968;2023-03-14T08:35:12;10.50;99.90
6822;DHT22;3449;48.728;8.968;2023-03-14T08:37:39;10.40;99.90
6822;DHT22;3449;48.728;8.968;2023-03-14T08:40:07;10.40;99.90
6822;DHT22;3449;48.728;8.968;2023-03-14T08:42:35;10.70;99.90
6822;DHT22;3449;48.728;8.968;2023-03-14T08:45:03;10.70;99.90
6822;DHT22;3449;48.728;8.968;2023-03-14T08:47:32;10.80;99.90
6822;DHT22;3449;48.728;8.968;2023-03-14T08:49:59;10.80;99.90
6822;DHT22;3449;48.728;8.968;2023-03-14T08:52:26;10.80;99.90
6822;DHT22;3449;48.728;8.968;2023-03-14T08:54:53;10.70;99.90
6822;DHT22;3449;48.728;8.968;2023-03-14T08:57:20;10.50;99.90
6822;DHT22;3449;48.728;8.968;2023-03-14T08:59:47;10.30;99.90
6822;DHT22;3449;48.728;8.968;2023-03-14T09:02:14;10.10;99.90
6822;DHT22;3449;48.728;8.968;2023-03-14T09:04:42;10.10;99.90
6822;DHT22;3449;48.728;8.968;2023-03-14T09:07:09;10.00;99.90
6822;DHT22;3449;48.728;8.968;2023-03-14T09:09:36;9.90;99.90
6822;DHT22;3449;48.728;8.968;2023-03-14T09:12:03;9.90;99.90
6822;DHT22;3449;48.728;8.968;2023-03-14T09:14:31;9.90;99.90
6822;DHT22;3449;48.728;8.968;2023-03-14T09:16:58;9.80;99.90
6822;DHT22;3449;48.728;8.968;2023-03-14T09:19:25;9.80;99.90
6822;DHT22;3449;48.728;8.968;2023-03-14T09:21:54;9.80;99.90
6822;DHT22;3449;48.728;8.968;2023-03-14T09:24:21;9.90;99.90
6822;DHT22;3449;48.728;8.968;2023-03-14T09:26:48;9.90;99.90
6822;DHT22;3449;48.728;8.968;2023-03-14T09:29:15;9.90;99.90
6822;DHT22;3449;48.728;8.968;2023-03-14T09:31:41;10.00;99.90
6822;DHT22;3449;48.728;8.968;2023-03-14T09:34:08;10.00;99.90
6822;DHT22;3449;48.728;8.968;2023-03-14T09:36:35;10.10;99.90
6822;DHT22;3449;48.728;8.968;2023-03-14T09:39:05;10.20;99.90
6822;DHT22;3449;48.728;8.968;2023-03-14T09:41:34;10.20;99.90
6822;DHT22;3449;48.728;8.968;2023-03-14T09:44:05;10.20;99.90
6822;DHT22;3449;48.728;8.968;2023-03-14T09:46:35;10.20;99.90
6822;DHT22;3449;48.728;8.968;2023-03-14T09:49:05;10.30;99.90
6822;DHT22;3449;48.728;8.968;2023-03-14T09:51:36;10.30;99.90
6822;DHT22;3449;48.728;8.968;2023-03-14T09:54:05;10.30;99.90
6822;DHT22;3449;48.728;8.968;2023-03-14T09:56:39;10.40;99.90
6822;DHT22;3449;48.728;8.968;2023-03-14T09:59:12;10.50;99.90
6822;DHT22;3449;48.728;8.968;2023-03-14T10:01:39;10.40;99.90
6822;DHT22;3449;48.728;8.968;2023-03-14T10:04:12;10.50;99.90
6822;DHT22;3449;48.728;8.968;2023-03-14T10:06:40;10.60;99.90
6822;DHT22;3449;48.728;8.968;2023-03-14T10:09:12;10.90;99.90
6822;DHT22;3449;48.728;8.968;2023-03-14T10:11:42;11.10;99.90
6822;DHT22;3449;48.728;8.968;2023-03-14T10:14:10;11.00;99.90
6822;DHT22;3449;48.728;8.968;2023-03-14T10:16:42;11.10;99.90
6822;DHT22;3449;48.728;8.968;2023-03-14T10:19:11;11.00;99.90
6822;DHT22;3449;48.728;8.968;2023-03-14T10:21:39;11.00;99.90
6822;DHT22;3449;48.728;8.968;2023-03-14T10:24:19;11.00;99.90
6822;DHT22;3449;48.728;8.968;2023-03-14T10:26:48;10.90;99.90
6822;DHT22;3449;48.728;8.968;2023-03-14T10:29:16;10.80;99.90
6822;DHT22;3449;48.728;8.968;2023-03-14T10:31:48;10.70;99.90
6822;DHT22;3449;48.728;8.968;2023-03-14T10:34:17;10.70;99.90
6822;DHT22;3449;48.728;8.968;2023-03-14T10:36:52;10.80;99.90
6822;DHT22;3449;48.728;8.968;2023-03-14T10:39:30;10.80;99.90
6822;DHT22;3449;48.728;8.968;2023-03-14T10:42:04;10.80;99.90
6822;DHT22;3449;48.728;8.968;2023-03-14T10:44:33;10.90;99.90
6822;DHT22;3449;48.728;8.968;2023-03-14T10:47:02;10.80;99.90
6822;DHT22;3449;48.728;8.968;2023-03-14T10:49:31;10.80;99.90
6822;DHT22;3449;48.728;8.968;2023-03-14T10:52:02;10.70;99.90
6822;DHT22;3449;48.728;8.968;2023-03-14T10:54:38;10.60;99.90
6822;DHT22;3449;48.728;8.968;2023-03-14T10:57:05;10.50;99.90
6822;DHT22;3449;48.728;8.968;2023-03-14T10:59:35;10.40;99.90
6822;DHT22;3449;48.728;8.968;2023-03-14T11:02:11;10.40;99.90
6822;DHT22;3449;48.728;8.968;2023-03-14T11:04:54;10.30;99.90
6822;DHT22;3449;48.728;8.968;2023-03-14T11:07:27;10.30;99.90
6822;DHT22;3449;48.728;8.968;2023-03-14T11:10:02;10.30;99.90
6822;DHT22;3449;48.728;8.968;2023-03-14T11:12:41;10.20;99.90
6822;DHT22;3449;48.728;8.968;2023-03-14T11:15:18;10.10;99.90
6822;DHT22;3449;48.728;8.968;2023-03-14T11:17:57;10.00;99.90
6822;DHT22;3449;48.728;8.968;2023-03-14T11:20:32;9.90;99.90
6822;DHT22;3449;48.728;8.968;2023-03-14T11:23:07;9.70;99.90
6822;DHT22;3449;48.728;8.968;2023-03-14T11:25:40;9.60;99.90
6822;DHT22;3449;48.728;8.968;2023-03-14T11:28:17;9.60;99.90
6822;DHT22;3449;48.728;8.968;2023-03-14T11:30:50;9.60;99.90
6822;DHT22;3449;48.728;8.968;2023-03-14T11:33:21;9.60;99.90
6822;DHT22;3449;48.728;8.968;2023-03-14T11:35:55;9.70;99.90
6822;DHT22;3449;48.728;8.968;2023-03-14T11:38:34;9.80;99.90
6822;DHT22;3449;48.728;8.968;2023-03-14T11:41:10;9.80;99.90
6822;DHT22;3449;48.728;8.968;2023-03-14T11:43:39;9.70;99.90
6822;DHT22;3449;48.728;8.968;2023-03-14T11:46:10;9.70;99.90
6822;DHT22;3449;48.728;8.968;2023-03-14T11:48:44;9.70;99.90
6822;DHT22;3449;48.728;8.968;2023-03-14T11:51:17;9.70;99.90
6822;DHT22;3449;48.728;8.968;2023-03-14T11:53:53;9.70;99.90
6822;DHT22;3449;48.728;8.968;2023-03-14T11:56:28;9.80;99.90
6822;DHT22;3449;48.728;8.968;2023-03-14T11:58:59;9.80;99.90
6822;DHT22;3449;48.728;8.968;2023-03-14T12:01:37;9.80;99.90
6822;DHT22;3449;48.728;8.968;2023-03-14T12:04:13;9.70;99.90
6822;DHT22;3449;48.728;8.968;2023-03-14T12:06:47;9.60;99.90
6822;DHT22;3449;48.728;8.968;2023-03-14T12:09:16;9.40;99.90
6822;DHT22;3449;48.728;8.968;2023-03-14T12:11:48;9.40;99.90
6822;DHT22;3449;48.728;8.968;2023-03-14T12:14:21;9.50;99.90
6822;DHT22;3449;48.728;8.968;2023-03-14T12:16:49;9.80;99.90
6822;DHT22;3449;48.728;8.968;2023-03-14T12:19:33;10.00;99.90
6822;DHT22;3449;48.728;8.968;2023-03-14T12:22:21;10.50;99.90
6822;DHT22;3449;48.728;8.968;2023-03-14T12:24:52;10.20;99.90
6822;DHT22;3449;48.728;8.968;2023-03-14T12:27:47;10.00;99.90
6822;DHT22;3449;48.728;8.968;2023-03-14T12:30:25;10.00;99.90
6822;DHT22;3449;48.728;8.968;2023-03-14T12:36:10;10.30;99.90
6822;DHT22;3449;48.728;8.968;2023-03-14T12:38:52;9.90;99.90
6822;DHT22;3449;48.728;8.968;2023-03-14T12:41:23;9.40;99.90
6822;DHT22;3449;48.728;8.968;2023-03-14T12:43:53;9.90;99.90
6822;DHT22;3449;48.728;8.968;2023-03-14T12:46:22;10.40;99.90
6822;DHT22;3449;48.728;8.968;2023-03-14T12:48:53;10.90;99.90
6822;DHT22;3449;48.728;8.968;2023-03-14T12:51:28;11.10;99.90
6822;DHT22;3449;48.728;8.968;2023-03-14T12:54:21;10.80;99.90
6822;DHT22;3449;48.728;8.968;2023-03-14T12:57:11;10.30;99.90
6822;DHT22;3449;48.728;8.968;2023-03-14T12:59:50;10.30;99.90
6822;DHT22;3449;48.728;8.968;2023-03-14T13:02:23;10.20;99.90
6822;DHT22;3449;48.728;8.968;2023-03-14T13:04:54;9.90;99.90
6822;DHT22;3449;48.728;8.968;2023-03-14T13:07:33;9.90;99.90
6822;DHT22;3449;48.728;8.968;2023-03-14T13:10:15;10.30;99.90
6822;DHT22;3449;48.728;8.968;2023-03-14T13:12:48;10.60;99.90
6822;DHT22;3449;48.728;8.968;2023-03-14T13:15:29;10.60;99.90
6822;DHT22;3449;48.728;8.968;2023-03-14T13:18:01;10.60;99.90
6822;DHT22;3449;48.728;8.968;2023-03-14T13:20:31;10.60;99.90
6822;DHT22;3449;48.728;8.968;2023-03-14T13:23:00;10.50;99.90
6822;DHT22;3449;48.728;8.968;2023-03-14T13:25:30;10.20;99.90
6822;DHT22;3449;48.728;8.968;2023-03-14T13:27:58;9.80;99.90
6822;DHT22;3449;48.728;8.968;2023-03-14T13:30:28;9.60;99.90
6822;DHT22;3449;48.728;8.968;2023-03-14T13:32:55;9.30;99.90
6822;DHT22;3449;48.728;8.968;2023-03-14T13:35:26;9.00;99.90
6822;DHT22;3449;48.728;8.968;2023-03-14T13:37:57;8.80;99.90
6822;DHT22;3449;48.728;8.968;2023-03-14T13:40:28;8.60;99.90
6822;DHT22;3449;48.728;8.968;2023-03-14T13:43:06;8.40;99.90
6822;DHT22;3449;48.728;8.968;2023-03-14T13:45:51;8.30;99.90
6822;DHT22;3449;48.728;8.968;2023-03-14T13:48:19;8.30;99.90
6822;DHT22;3449;48.728;8.968;2023-03-14T13:50:50;8.40;99.90
6822;DHT22;3449;48.728;8.968;2023-03-14T13:53:17;8.40;99.90
6822;DHT22;3449;48.728;8.968;2023-03-14T13:55:44;8.50;99.90
6822;DHT22;3449;48.728;8.968;2023-03-14T13:58:21;8.70;99.90
6822;DHT22;3449;48.728;8.968;2023-03-14T14:01:06;8.70;99.90
6822;DHT22;3449;48.728;8.968;2023-03-14T14:03:38;8.70;99.90
6822;DHT22;3449;48.728;8.968;2023-03-14T14:06:10;8.60;99.90
6822;DHT22;3449;48.728;8.968;2023-03-14T14:08:40;8.50;99.90
6822;DHT22;3449;48.728;8.968;2023-03-14T14:11:10;8.40;99.90
6822;DHT22;3449;48.728;8.968;2023-03-14T14:13:40;8.60;99.90
6822;DHT22;3449;48.728;8.968;2023-03-14T14:16:09;8.50;99.90
6822;DHT22;3449;48.728;8.968;2023-03-14T14:18:36;8.40;99.90
6822;DHT22;3449;48.728;8.968;2023-03-14T14:21:03;8.50;99.90
6822;DHT22;3449;48.728;8.968;2023-03-14T14:23:32;8.50;99.90
6822;DHT22;3449;48.728;8.968;2023-03-14T14:25:59;8.20;99.90
6822;DHT22;3449;48.728;8.968;2023-03-14T14:28:28;8.00;99.90
6822;DHT22;3449;48.728;8.968;2023-03-14T14:31:18;8.00;99.90
6822;DHT22;3449;48.728;8.968;2023-03-14T14:33:53;7.90;99.90
6822;DHT22;3449;48.728;8.968;2023-03-14T14:36:22;7.80;99.90
6822;DHT22;3449;48.728;8.968;2023-03-14T14:38:51;7.90;99.90
6822;DHT22;3449;48.728;8.968;2023-03-14T14:41:19;8.00;99.90
6822;DHT22;3449;48.728;8.968;2023-03-14T14:43:46;8.10;99.90
6822;DHT22;3449;48.728;8.968;2023-03-14T14:46:18;8.10;99.90
6822;DHT22;3449;48.728;8.968;2023-03-14T14:48:46;8.20;99.90
6822;DHT22;3449;48.728;8.968;2023-03-14T14:51:24;8.40;99.90
6822;DHT22;3449;48.728;8.968;2023-03-14T14:54:03;8.40;99.90
6822;DHT22;3449;48.728;8.968;2023-03-14T14:56:35;8.50;99.90
6822;DHT22;3449;48.728;8.968;2023-03-14T14:59:02;8.50;99.90
6822;DHT22;3449;48.728;8.968;2023-03-14T15:01:34;8.70;99.90
6822;DHT22;3449;48.728;8.968;2023-03-14T15:04:02;8.90;99.90
6822;DHT22;3449;48.728;8.968;2023-03-14T15:06:31;9.00;99.90
6822;DHT22;3449;48.728;8.968;2023-03-14T15:08:58;8.90;99.90
6822;DHT22;3449;48.728;8.968;2023-03-14T15:11:26;8.70;99.90
6822;DHT22;3449;48.728;8.968;2023-03-14T15:13:53;8.70;99.90
6822;DHT22;3449;48.728;8.968;2023-03-14T15:16:22;8.70;99.90
6822;DHT22;3449;48.728;8.968;2023-03-14T15:18:54;9.00;99.90
6822;DHT22;3449;48.728;8.968;2023-03-14T15:21:22;9.10;99.90
6822;DHT22;3449;48.728;8.968;2023-03-14T15:23:48;9.10;99.90
6822;DHT22;3449;48.728;8.968;2023-03-14T15:26:18;9.00;99.90
6822;DHT22;3449;48.728;8.968;2023-03-14T15:28:45;8.90;99.90
6822;DHT22;3449;48.728;8.968;2023-03-14T15:31:13;8.80;99.90
6822;DHT22;3449;48.728;8.968;2023-03-14T15:33:42;8.90;99.90
6822;DHT22;3449;48.728;8.968;2023-03-14T15:36:21;9.00;99.90
6822;DHT22;3449;48.728;8.968;2023-03-14T15:38:49;9.00;99.90
6822;DHT22;3449;48.728;8.968;2023-03-14T15:41:16;9.00;99.90
6822;DHT22;3449;48.728;8.968;2023-03-14T15:43:43;8.90;99.90
6822;DHT22;3449;48.728;8.968;2023-03-14T15:46:11;8.70;99.90
6822;DHT22;3449;48.728;8.968;2023-03-14T15:48:38;8.50;99.90
6822;DHT22;3449;48.728;8.968;2023-03-14T15:51:05;8.50;99.90
6822;DHT22;3449;48.728;8.968;2023-03-14T15:53:34;8.40;99.90
6822;DHT22;3449;48.728;8.968;2023-03-14T15:56:02;8.30;99.90
6822;DHT22;3449;48.728;8.968;2023-03-14T15:58:29;8.20;99.90
6822;DHT22;3449;48.728;8.968;2023-03-14T16:00:59;8.00;99.90
6822;DHT22;3449;48.728;8.968;2023-03-14T16:03:26;7.90;99.90
6822;DHT22;3449;48.728;8.968;2023-03-14T16:05:53;7.80;99.90
6822;DHT22;3449;48.728;8.968;2023-03-14T16:08:20;7.90;99.90
6822;DHT22;3449;48.728;8.968;2023-03-14T16:10:49;8.10;99.90
6822;DHT22;3449;48.728;8.968;2023-03-14T16:13:16;8.20;99.90
6822;DHT22;3449;48.728;8.968;2023-03-14T16:15:52;8.30;99.90
6822;DHT22;3449;48.728;8.968;2023-03-14T16:18:19;8.30;99.90
6822;DHT22;3449;48.728;8.968;2023-03-14T16:20:52;8.30;99.90
6822;DHT22;3449;48.728;8.968;2023-03-14T16:23:18;8.30;99.90
6822;DHT22;3449;48.728;8.968;2023-03-14T16:25:45;8.30;99.90
6822;DHT22;3449;48.728;8.968;2023-03-14T16:28:14;8.20;99.90
6822;DHT22;3449;48.728;8.968;2023-03-14T16:30:40;8.00;99.90